Time;durP1;ratioP1;P1;durP2;ratioP2;P2;SDS_P1;SDS_P2;PMS_P1;PMS_P2;Temp;Humidity;BMP_temperature;BMP_pressure;BME280_temperature;BME280_humidity;BME280_pressure;Samples;Min_cycle;Max_cycle;Signal;HPM_P1;HPM_P2
2023/10/31 00:00:12;;;;;;;9.10;3.63;;;20.50;56.70;;;;;;5130068;27;47315;-73
2023/10/31 00:02:40;;;;;;;7.78;3.90;;;20.50;56.70;;;;;;5129899;27;45314;-74
2023/10/31 00:05:07;;;;;;;11.10;4.32;;;20.40;56.60;;;;;;5130116;27;45297;-73
2023/10/31 00:07:34;;;;;;;8.65;3.75;;;20.40;56.70;;;;;;5130270;27;45436;-75
2023/10/31 00:10:01;;;;;;;6.22;3.45;;;20.40;56.70;;;;;;5130045;27;45214;-73
2023/10/31 00:12:27;;;;;;;8.93;3.95;;;20.40;56.70;;;;;;5130127;27;45296;-74
2023/10/31 00:14:54;;;;;;;9.07;3.60;;;20.40;56.70;;;;;;5129680;27;45172;-74
2023/10/31 00:17:21;;;;;;;7.05;3.65;;;20.40;56.70;;;;;;5129810;27;45302;-73
2023/10/31 00:19:49;;;;;;;7.30;3.67;;;20.30;56.70;;;;;;5129467;27;45319;-73
2023/10/31 00:22:17;;;;;;;6.30;2.95;;;20.30;56.70;;;;;;5130073;27;45243;-74
2023/10/31 00:24:44;;;;;;;6.55;2.97;;;20.30;56.70;;;;;;5129839;27;45247;-73
2023/10/31 00:27:11;;;;;;;4.55;2.83;;;20.30;56.70;;;;;;5128947;27;45303;-73
2023/10/31 00:29:38;;;;;;;7.53;3.35;;;20.30;56.70;;;;;;5129713;27;45287;-73
2023/10/31 00:32:05;;;;;;;6.82;3.10;;;20.30;56.70;;;;;;5129496;27;45299;-74
2023/10/31 00:34:32;;;;;;;4.72;2.97;;;20.20;56.70;;;;;;5129240;27;45207;-74
2023/10/31 00:37:00;;;;;;;5.43;2.88;;;20.20;56.70;;;;;;5139972;27;45242;-73
2023/10/31 00:39:27;;;;;;;4.55;2.65;;;20.20;56.70;;;;;;5129364;27;45532;-74
2023/10/31 00:41:54;;;;;;;6.65;2.75;;;20.20;56.70;;;;;;5129417;27;45401;-74
2023/10/31 00:44:21;;;;;;;6.68;3.00;;;20.20;56.70;;;;;;5129288;27;45278;-74
2023/10/31 00:46:47;;;;;;;6.78;2.83;;;20.20;56.70;;;;;;5129818;27;45233;-74
2023/10/31 00:49:14;;;;;;;5.07;2.67;;;20.10;56.80;;;;;;5128835;27;45282;-74
2023/10/31 00:51:41;;;;;;;3.55;2.25;;;20.10;56.70;;;;;;5129319;27;45323;-74
2023/10/31 00:54:09;;;;;;;4.88;2.80;;;20.10;56.70;;;;;;5129449;27;45321;-74
2023/10/31 00:56:36;;;;;;;6.55;2.60;;;20.10;56.70;;;;;;5129700;27;45302;-74
2023/10/31 00:59:03;;;;;;;4.65;2.35;;;20.10;56.70;;;;;;5128979;27;45456;-74
2023/10/31 01:01:30;;;;;;;4.82;2.55;;;20.00;56.70;;;;;;5128482;27;45273;-74
2023/10/31 01:03:57;;;;;;;3.33;1.88;;;20.00;56.70;;;;;;5129045;27;45386;-74
2023/10/31 01:06:24;;;;;;;7.97;2.60;;;20.00;56.80;;;;;;5129223;27;45354;-74
2023/10/31 01:08:51;;;;;;;4.63;1.80;;;20.00;56.80;;;;;;5126053;27;45680;-74
2023/10/31 01:11:19;;;;;;;4.35;2.10;;;20.00;56.80;;;;;;5129011;27;45303;-74
2023/10/31 01:13:46;;;;;;;4.10;1.85;;;20.00;56.80;;;;;;5129021;27;45325;-74
2023/10/31 01:16:13;;;;;;;4.35;2.25;;;19.90;56.70;;;;;;5149362;27;45337;-73
2023/10/31 01:18:40;;;;;;;4.47;2.50;;;19.90;56.70;;;;;;5149537;27;46355;-74
2023/10/31 01:21:09;;;;;;;4.05;1.88;;;19.90;56.70;;;;;;5149773;27;45240;-74
2023/10/31 01:23:35;;;;;;;8.00;2.70;;;19.90;56.70;;;;;;5149861;27;45509;-74
2023/10/31 01:26:02;;;;;;;4.60;2.20;;;19.90;56.80;;;;;;5149878;27;45343;-74
2023/10/31 01:28:31;;;;;;;4.53;2.10;;;19.90;56.80;;;;;;5149622;27;46538;-74
2023/10/31 01:30:58;;;;;;;3.10;1.98;;;19.90;56.80;;;;;;5149359;27;45322;-74
2023/10/31 01:33:24;;;;;;;4.20;1.80;;;19.90;56.80;;;;;;5149251;27;45263;-74
2023/10/31 01:35:51;;;;;;;4.55;2.42;;;19.90;56.70;;;;;;5144511;27;45237;-74
2023/10/31 01:38:18;;;;;;;3.83;1.90;;;19.80;56.70;;;;;;5128639;27;46675;-74
2023/10/31 01:40:45;;;;;;;3.30;1.83;;;19.80;56.70;;;;;;5128786;27;45281;-74
2023/10/31 01:43:12;;;;;;;2.67;1.50;;;19.80;56.70;;;;;;5125858;27;44622;-74
2023/10/31 01:45:40;;;;;;;2.90;2.20;;;19.80;56.70;;;;;;5128012;27;45231;-74
2023/10/31 01:48:07;;;;;;;3.28;1.75;;;19.80;57.30;;;;;;5128356;27;46323;-75
2023/10/31 01:50:34;;;;;;;4.03;1.67;;;19.80;56.70;;;;;;5127990;27;45280;-74
2023/10/31 01:53:01;;;;;;;2.63;1.80;;;19.80;56.80;;;;;;5128611;27;45316;-74
2023/10/31 01:55:29;;;;;;;2.72;1.50;;;19.80;56.80;;;;;;5128557;27;45577;-74
2023/10/31 01:57:56;;;;;;;3.15;1.77;;;19.80;56.80;;;;;;5128017;27;46427;-74
2023/10/31 02:00:23;;;;;;;4.20;1.45;;;19.80;56.80;;;;;;5128215;27;45240;-74
2023/10/31 02:02:52;;;;;;;2.35;1.60;;;19.80;56.80;;;;;;5128257;27;45242;-75
2023/10/31 02:05:19;;;;;;;2.75;1.70;;;19.70;56.80;;;;;;5128047;27;45292;-74
2023/10/31 02:07:46;;;;;;;2.83;1.70;;;19.70;56.70;;;;;;5127962;27;45521;-74
2023/10/31 02:10:13;;;;;;;2.28;1.45;;;19.70;56.70;;;;;;5127845;27;45435;-74
2023/10/31 02:12:40;;;;;;;2.17;1.40;;;19.70;56.70;;;;;;5128187;27;45343;-74
2023/10/31 02:15:09;;;;;;;2.25;1.20;;;19.70;56.70;;;;;;5117567;27;45226;-74
2023/10/31 02:17:35;;;;;;;3.90;1.42;;;19.70;56.70;;;;;;5107123;27;46523;-74
2023/10/31 02:20:04;;;;;;;2.45;1.35;;;19.70;56.80;;;;;;5107027;27;45461;-74
2023/10/31 02:22:32;;;;;;;3.65;1.73;;;19.60;56.70;;;;;;5107188;27;45260;-74
2023/10/31 02:24:59;;;;;;;2.75;1.27;;;19.60;56.70;;;;;;5107352;27;45265;-72
2023/10/31 02:27:26;;;;;;;2.67;1.35;;;19.60;56.70;;;;;;5107177;27;46648;-74
2023/10/31 02:29:53;;;;;;;1.90;1.33;;;19.60;57.30;;;;;;5106868;27;45348;-74
2023/10/31 02:32:20;;;;;;;1.77;1.10;;;19.60;56.70;;;;;;5106601;27;45368;-74
2023/10/31 02:34:47;;;;;;;1.17;1.00;;;19.60;56.70;;;;;;5106954;27;45401;-74
2023/10/31 02:37:14;;;;;;;1.50;1.20;;;19.60;56.70;;;;;;5123287;27;48298;-74
2023/10/31 02:39:42;;;;;;;1.48;1.10;;;19.50;56.70;;;;;;5127767;27;45221;-74
2023/10/31 02:42:09;;;;;;;6.32;1.50;;;19.50;56.80;;;;;;5127839;27;45307;-74
2023/10/31 02:44:36;;;;;;;2.50;1.33;;;19.50;56.70;;;;;;5127883;27;45232;-74
2023/10/31 02:47:04;;;;;;;2.28;1.40;;;19.50;57.30;;;;;;5127447;27;46314;-74
2023/10/31 02:49:32;;;;;;;1.70;1.13;;;19.50;56.70;;;;;;5127318;27;45245;-74
2023/10/31 02:51:59;;;;;;;2.30;1.30;;;19.50;56.80;;;;;;5130274;27;45472;-74
2023/10/31 02:54:26;;;;;;;2.95;1.00;;;19.50;56.70;;;;;;5131512;27;45337;-75
2023/10/31 02:56:54;;;;;;;1.33;1.13;;;19.50;56.80;;;;;;5130807;27;45613;-74
2023/10/31 02:59:21;;;;;;;1.95;1.05;;;19.50;56.70;;;;;;5130963;27;45204;-74
2023/10/31 03:01:47;;;;;;;1.60;1.10;;;19.50;56.80;;;;;;5130867;27;45294;-74
2023/10/31 03:04:14;;;;;;;1.77;1.15;;;19.50;56.80;;;;;;5127915;27;45304;-74
2023/10/31 03:06:41;;;;;;;2.45;1.17;;;19.40;56.70;;;;;;5130679;27;46713;-74
2023/10/31 03:09:08;;;;;;;1.23;1.10;;;19.40;56.70;;;;;;5131519;27;45234;-74
2023/10/31 03:11:35;;;;;;;1.92;0.93;;;19.40;56.70;;;;;;5130880;27;45338;-74
2023/10/31 03:14:03;;;;;;;2.65;0.80;;;19.40;56.70;;;;;;5130805;27;45352;-73
2023/10/31 03:16:30;;;;;;;1.20;0.93;;;19.40;56.70;;;;;;5129800;27;45296;-74
2023/10/31 03:18:57;;;;;;;2.03;1.23;;;19.40;56.70;;;;;;5130921;27;45267;-73
2023/10/31 03:21:24;;;;;;;1.58;1.05;;;19.40;56.70;;;;;;5131087;27;45256;-74
2023/10/31 03:23:52;;;;;;;1.23;0.88;;;19.30;56.70;;;;;;5130893;27;45403;-75
2023/10/31 03:26:19;;;;;;;2.30;0.90;;;19.30;56.70;;;;;;5130625;27;46880;-74
2023/10/31 03:28:46;;;;;;;1.20;0.90;;;19.30;56.70;;;;;;5130722;27;45307;-74
2023/10/31 03:31:15;;;;;;;1.73;1.00;;;19.30;56.70;;;;;;5130943;27;45265;-74
2023/10/31 03:33:42;;;;;;;1.08;0.95;;;19.30;56.70;;;;;;5130382;27;45492;-74
2023/10/31 03:36:09;;;;;;;2.53;1.00;;;19.30;56.70;;;;;;5137295;27;47043;-74
2023/10/31 03:38:36;;;;;;;1.65;0.95;;;19.30;56.70;;;;;;5151245;27;45307;-74
2023/10/31 03:41:03;;;;;;;1.73;1.20;;;19.30;56.70;;;;;;5151388;27;45231;-74
2023/10/31 03:43:30;;;;;;;1.00;0.80;;;19.30;56.70;;;;;;5151547;27;45395;-74
2023/10/31 03:45:57;;;;;;;1.88;0.88;;;19.20;56.70;;;;;;5151446;27;45374;-74
2023/10/31 03:48:25;;;;;;;2.05;0.98;;;19.20;56.60;;;;;;5151188;27;45417;-74
2023/10/31 03:50:52;;;;;;;0.85;0.77;;;19.20;56.60;;;;;;5150149;27;45245;-75
2023/10/31 03:53:19;;;;;;;2.97;0.80;;;19.20;56.60;;;;;;5130477;27;45122;-74
2023/10/31 03:55:46;;;;;;;1.13;0.90;;;19.20;56.70;;;;;;5129709;27;46625;-74
2023/10/31 03:58:13;;;;;;;0.95;0.77;;;19.20;56.70;;;;;;5129729;27;45323;-72
2023/10/31 04:00:40;;;;;;;2.13;1.05;;;19.20;56.70;;;;;;5129454;27;45426;-74
2023/10/31 04:03:07;;;;;;;0.98;0.77;;;19.20;56.70;;;;;;5129153;27;45302;-74
2023/10/31 04:05:35;;;;;;;1.92;0.73;;;19.10;56.70;;;;;;5129967;27;45236;-74
2023/10/31 04:08:02;;;;;;;1.15;0.65;;;19.20;56.80;;;;;;5130299;27;45323;-74
2023/10/31 04:10:29;;;;;;;0.90;0.80;;;19.20;56.80;;;;;;5129966;27;45515;-74
2023/10/31 04:12:56;;;;;;;1.83;0.80;;;19.20;56.80;;;;;;5130207;27;44865;-74
2023/10/31 04:15:23;;;;;;;1.38;0.93;;;19.20;56.60;;;;;;5129433;27;46444;-74
2023/10/31 04:17:50;;;;;;;2.10;0.80;;;19.30;56.60;;;;;;5129827;27;45251;-74
2023/10/31 04:20:16;;;;;;;0.90;0.70;;;19.40;56.40;;;;;;5129999;27;45355;-75
2023/10/31 04:22:45;;;;;;;0.93;0.75;;;19.50;56.30;;;;;;5130172;27;45336;-74
2023/10/31 04:25:12;;;;;;;1.92;0.80;;;19.50;56.00;;;;;;5129320;27;45520;-74
2023/10/31 04:27:38;;;;;;;0.70;0.70;;;19.60;55.80;;;;;;5129469;27;45252;-74
2023/10/31 04:30:06;;;;;;;1.48;0.80;;;19.70;55.70;;;;;;5129614;27;45294;-75
2023/10/31 04:32:33;;;;;;;1.88;0.80;;;19.80;55.50;;;;;;5129742;27;45340;-74
2023/10/31 04:35:00;;;;;;;1.15;0.70;;;19.80;55.40;;;;;;5129460;27;45520;-75
2023/10/31 04:37:27;;;;;;;2.00;0.70;;;19.90;55.20;;;;;;5148298;27;45252;-75
2023/10/31 04:39:55;;;;;;;1.52;0.75;;;20.00;55.00;;;;;;5150671;27;45278;-74
2023/10/31 04:42:22;;;;;;;1.30;0.80;;;20.00;55.40;;;;;;5150118;27;45338;-74
2023/10/31 04:44:49;;;;;;;1.80;0.70;;;20.10;54.70;;;;;;5149486;27;45484;-74
2023/10/31 04:47:16;;;;;;;1.02;0.70;;;20.20;54.60;;;;;;5150294;27;45252;-74
2023/10/31 04:49:43;;;;;;;1.42;0.73;;;20.20;54.40;;;;;;5151184;27;45223;-72
2023/10/31 04:52:10;;;;;;;1.35;0.70;;;20.30;54.90;;;;;;5150389;27;45180;-75
2023/10/31 04:54:37;;;;;;;0.93;0.70;;;20.30;54.10;;;;;;5150482;27;47577;-75
2023/10/31 04:57:05;;;;;;;0.73;0.57;;;20.40;54.00;;;;;;5150306;27;45311;-74
2023/10/31 04:59:32;;;;;;;2.13;0.55;;;20.40;53.90;;;;;;5150561;27;45191;-74
2023/10/31 05:01:59;;;;;;;0.82;0.55;;;20.50;53.70;;;;;;5150297;27;45235;-74
2023/10/31 05:04:26;;;;;;;1.45;0.82;;;20.50;53.60;;;;;;5149963;27;47360;-75
2023/10/31 05:06:53;;;;;;;1.73;0.55;;;20.60;53.50;;;;;;5149868;27;45350;-73
2023/10/31 05:09:20;;;;;;;1.80;0.68;;;20.60;53.50;;;;;;5150124;27;45439;-74
2023/10/31 05:11:47;;;;;;;2.15;0.63;;;20.60;53.40;;;;;;5150066;27;45166;-74
2023/10/31 05:14:14;;;;;;;1.08;0.50;;;20.60;53.30;;;;;;5149168;27;47296;-74
2023/10/31 05:16:42;;;;;;;2.08;0.68;;;20.70;53.30;;;;;;5149373;27;45314;-73
2023/10/31 05:19:09;;;;;;;1.33;0.70;;;20.70;53.20;;;;;;5149952;27;45335;-74
2023/10/31 05:21:36;;;;;;;0.32;0.32;;;20.70;53.70;;;;;;5149797;27;45233;-74
2023/10/31 05:24:03;;;;;;;1.75;0.80;;;20.70;53.00;;;;;;5149993;27;45497;-74
2023/10/31 05:26:30;;;;;;;0.60;0.60;;;20.80;53.60;;;;;;5148834;27;45191;-73
2023/10/31 05:28:57;;;;;;;0.95;0.60;;;20.80;53.00;;;;;;5146921;27;45434;-74
2023/10/31 05:31:25;;;;;;;1.13;0.57;;;20.80;52.90;;;;;;5128799;27;45426;-74
2023/10/31 05:33:53;;;;;;;2.53;0.60;;;20.80;52.90;;;;;;5128289;27;46719;-74
2023/10/31 05:36:20;;;;;;;0.52;0.52;;;20.80;52.90;;;;;;5137403;27;45256;-74
2023/10/31 05:38:47;;;;;;;0.88;0.50;;;20.80;52.90;;;;;;5149558;27;45292;-73
2023/10/31 05:41:14;;;;;;;0.60;0.50;;;20.80;52.70;;;;;;5149463;27;45369;-74
2023/10/31 05:43:42;;;;;;;0.50;0.50;;;20.90;52.70;;;;;;5148956;27;46361;-73
2023/10/31 05:46:10;;;;;;;0.60;0.40;;;20.90;52.60;;;;;;5149222;27;45194;-73
2023/10/31 05:48:39;;;;;;;0.88;0.52;;;20.90;52.60;;;;;;5149145;27;45275;-74
2023/10/31 05:51:11;;;;;;;0.70;0.45;;;20.90;52.60;;;;;;5149471;27;45289;-74
2023/10/31 05:53:38;;;;;;;1.83;0.73;;;20.90;52.60;;;;;;5148998;27;46719;-74
2023/10/31 05:56:07;;;;;;;0.63;0.60;;;20.90;52.60;;;;;;5148864;27;45249;-74
2023/10/31 05:58:33;;;;;;;2.20;0.70;;;20.90;52.60;;;;;;5149303;27;45254;-74
2023/10/31 06:01:00;;;;;;;0.75;0.50;;;20.90;52.60;;;;;;5149514;27;45211;-74
2023/10/31 06:03:27;;;;;;;1.17;0.75;;;20.90;52.50;;;;;;5148862;27;45350;-74
2023/10/31 06:05:55;;;;;;;0.57;0.52;;;20.90;52.50;;;;;;5148928;27;45264;-74
2023/10/31 06:08:24;;;;;;;1.75;0.52;;;20.90;52.50;;;;;;5136420;27;45225;-73
2023/10/31 06:10:51;;;;;;;0.68;0.50;;;20.90;52.40;;;;;;5128234;27;45419;-73
2023/10/31 06:13:18;;;;;;;1.00;0.55;;;20.90;52.40;;;;;;5127309;27;45368;-73
2023/10/31 06:15:45;;;;;;;2.83;0.50;;;20.90;52.40;;;;;;5127688;27;45237;-74
2023/10/31 06:18:12;;;;;;;0.63;0.47;;;20.90;52.40;;;;;;5128181;27;45480;-74
2023/10/31 06:20:39;;;;;;;0.32;0.32;;;20.90;52.40;;;;;;5128373;27;45258;-73
2023/10/31 06:23:08;;;;;;;2.80;0.70;;;20.90;52.40;;;;;;5127943;27;46387;-73
2023/10/31 06:25:34;;;;;;;0.50;0.50;;;21.00;52.40;;;;;;5128607;27;45244;-74
2023/10/31 06:28:01;;;;;;;1.88;0.47;;;21.00;52.40;;;;;;5131841;27;45379;-74
2023/10/31 06:30:28;;;;;;;0.85;0.40;;;21.00;52.30;;;;;;5131918;27;45185;-74
2023/10/31 06:32:55;;;;;;;0.68;0.50;;;21.00;52.30;;;;;;5130960;27;45218;-74
2023/10/31 06:35:24;;;;;;;0.43;0.40;;;21.00;52.30;;;;;;5132579;27;45320;-74
2023/10/31 06:37:51;;;;;;;0.70;0.50;;;21.00;52.30;;;;;;5152290;27;45289;-75
2023/10/31 06:40:20;;;;;;;0.77;0.70;;;20.90;52.20;;;;;;5152622;27;45407;-74
2023/10/31 06:42:47;;;;;;;0.57;0.57;;;20.90;52.30;;;;;;5152058;27;46638;-73
2023/10/31 06:45:14;;;;;;;1.02;0.60;;;20.90;52.20;;;;;;5152016;27;45291;-74
2023/10/31 06:47:41;;;;;;;1.20;0.50;;;20.90;52.20;;;;;;5152157;27;45144;-73
2023/10/31 06:50:09;;;;;;;0.95;0.70;;;21.00;52.20;;;;;;5152539;27;45433;-74
2023/10/31 06:52:36;;;;;;;0.95;0.40;;;21.00;52.20;;;;;;5151927;27;45198;-74
2023/10/31 06:55:03;;;;;;;0.60;0.60;;;21.00;52.20;;;;;;5151439;27;45340;-73
2023/10/31 06:57:31;;;;;;;1.35;0.50;;;21.00;52.10;;;;;;5151319;27;45247;-72
2023/10/31 06:59:58;;;;;;;0.50;0.50;;;21.00;52.10;;;;;;5151604;27;45180;-73
2023/10/31 07:02:26;;;;;;;2.05;0.68;;;20.90;52.10;;;;;;5151916;27;46596;-74
2023/10/31 07:04:52;;;;;;;0.60;0.50;;;20.90;52.10;;;;;;5139317;27;45212;-74
2023/10/31 07:07:19;;;;;;;2.47;0.60;;;20.90;52.10;;;;;;5114127;27;45442;-74
2023/10/31 07:09:46;;;;;;;2.85;0.60;;;20.90;52.70;;;;;;5131383;27;45457;-73
2023/10/31 07:12:13;;;;;;;2.25;0.60;;;21.00;52.10;;;;;;5130788;27;45260;-74
2023/10/31 07:14:41;;;;;;;0.85;0.43;;;21.00;52.10;;;;;;5130987;27;45204;-74
2023/10/31 07:17:08;;;;;;;0.30;0.30;;;21.00;52.60;;;;;;5131113;27;45341;-73
2023/10/31 07:19:35;;;;;;;1.27;0.50;;;21.00;52.00;;;;;;5130916;27;45358;-73
2023/10/31 07:22:03;;;;;;;1.50;0.50;;;21.00;52.00;;;;;;5130710;27;45430;-73
2023/10/31 07:24:30;;;;;;;0.70;0.65;;;21.00;52.00;;;;;;5130608;27;45213;-73
2023/10/31 07:26:57;;;;;;;1.05;0.60;;;21.10;52.00;;;;;;5130928;27;45303;-73
2023/10/31 07:29:24;;;;;;;1.55;0.60;;;21.10;51.90;;;;;;5130694;27;45397;-73
2023/10/31 07:31:52;;;;;;;3.40;0.77;;;21.10;52.50;;;;;;5130406;27;46362;-72
2023/10/31 07:34:19;;;;;;;0.60;0.60;;;21.10;51.80;;;;;;5129845;27;45318;-73
2023/10/31 07:36:46;;;;;;;0.77;0.50;;;21.10;51.80;;;;;;5143112;27;45239;-75
2023/10/31 07:39:14;;;;;;;1.67;0.50;;;21.10;51.80;;;;;;5151638;27;45529;-73
2023/10/31 07:41:41;;;;;;;0.40;0.40;;;21.10;51.80;;;;;;5150773;27;46971;-74
2023/10/31 07:44:07;;;;;;;0.50;0.50;;;21.20;51.70;;;;;;5150714;27;45312;-73
2023/10/31 07:46:34;;;;;;;0.50;0.50;;;21.20;51.70;;;;;;5136453;27;45412;-74
2023/10/31 07:49:03;;;;;;;1.92;0.50;;;21.20;52.30;;;;;;5130566;27;45311;-73
2023/10/31 07:51:29;;;;;;;1.08;0.60;;;21.20;51.60;;;;;;5130113;27;47274;-73
2023/10/31 07:53:58;;;;;;;0.75;0.70;;;21.20;51.60;;;;;;5130953;27;45498;-74
2023/10/31 07:56:25;;;;;;;1.35;0.68;;;21.20;51.60;;;;;;5130406;27;45372;-74
2023/10/31 07:58:52;;;;;;;0.63;0.55;;;21.20;51.60;;;;;;5131082;27;45321;-73
2023/10/31 08:01:19;;;;;;;0.52;0.52;;;21.20;51.60;;;;;;5130170;27;47711;-74
2023/10/31 08:03:46;;;;;;;0.43;0.40;;;21.20;51.60;;;;;;5130212;27;45227;-74
2023/10/31 08:06:15;;;;;;;0.50;0.50;;;21.20;51.60;;;;;;5130238;27;45297;-73
2023/10/31 08:08:42;;;;;;;1.23;0.40;;;21.20;51.60;;;;;;5130135;27;45276;-73
2023/10/31 08:11:09;;;;;;;0.30;0.30;;;21.30;51.60;;;;;;5130050;27;45367;-74
2023/10/31 08:13:37;;;;;;;0.80;0.50;;;21.20;51.50;;;;;;5129833;27;46017;-73
2023/10/31 08:16:04;;;;;;;0.90;0.50;;;21.20;51.60;;;;;;5130157;27;45212;-74
2023/10/31 08:18:31;;;;;;;0.63;0.38;;;21.20;51.60;;;;;;5130467;27;45382;-74
2023/10/31 08:20:58;;;;;;;1.70;0.32;;;21.20;51.60;;;;;;5129866;27;45221;-74
2023/10/31 08:23:27;;;;;;;0.60;0.30;;;21.20;51.70;;;;;;5129883;27;45286;-73
2023/10/31 08:25:53;;;;;;;0.50;0.50;;;21.20;51.60;;;;;;5129767;27;45275;-72
2023/10/31 08:28:20;;;;;;;0.45;0.45;;;21.20;51.60;;;;;;5129363;27;45221;-72
2023/10/31 08:30:47;;;;;;;0.35;0.30;;;21.20;51.60;;;;;;5129333;27;45436;-71
2023/10/31 08:33:14;;;;;;;0.88;0.60;;;21.30;51.60;;;;;;5130661;27;45196;-71
2023/10/31 08:35:42;;;;;;;1.85;0.52;;;21.30;52.10;;;;;;5134149;27;45252;-74
2023/10/31 08:38:09;;;;;;;0.40;0.40;;;21.30;51.60;;;;;;5150980;27;45205;-74
2023/10/31 08:40:37;;;;;;;0.28;0.28;;;21.30;51.60;;;;;;5150143;27;45207;-73
2023/10/31 08:43:06;;;;;;;0.88;0.43;;;21.30;52.10;;;;;;5150270;27;45253;-73
2023/10/31 08:45:33;;;;;;;0.43;0.30;;;21.30;51.60;;;;;;5144699;27;45306;-73
2023/10/31 08:48:00;;;;;;;0.93;0.50;;;21.20;51.50;;;;;;5129125;27;45114;-73
2023/10/31 08:50:27;;;;;;;1.00;0.30;;;21.20;51.50;;;;;;5129070;27;45569;-74
2023/10/31 08:52:54;;;;;;;0.45;0.45;;;21.20;51.50;;;;;;5129196;27;45333;-72
2023/10/31 08:55:21;;;;;;;0.30;0.30;;;21.30;51.60;;;;;;5131925;27;45367;-73
2023/10/31 08:57:51;;;;;;;1.15;0.63;;;21.30;51.50;;;;;;5129980;27;45304;-73
2023/10/31 09:00:19;;;;;;;0.77;0.30;;;21.30;51.50;;;;;;5129787;27;45226;-74
2023/10/31 09:02:46;;;;;;;0.20;0.20;;;21.30;51.50;;;;;;5129289;27;45396;-73
2023/10/31 09:05:12;;;;;;;0.40;0.40;;;21.30;51.50;;;;;;5129379;27;45370;-73
2023/10/31 09:07:40;;;;;;;0.38;0.38;;;21.30;51.50;;;;;;5129770;27;45553;-72
2023/10/31 09:10:08;;;;;;;0.40;0.40;;;21.30;51.40;;;;;;5129205;27;46163;-73
2023/10/31 09:12:35;;;;;;;0.60;0.50;;;21.30;51.50;;;;;;5128167;27;45307;-73
2023/10/31 09:15:03;;;;;;;0.70;0.50;;;21.30;51.50;;;;;;5127968;27;45387;-73
2023/10/31 09:17:31;;;;;;;1.75;0.50;;;21.30;51.50;;;;;;5129855;27;45237;-73
2023/10/31 09:19:59;;;;;;;0.20;0.20;;;21.30;51.50;;;;;;5129260;27;46385;-74
2023/10/31 09:22:25;;;;;;;1.02;0.57;;;21.30;51.50;;;;;;5128382;27;45284;-73
2023/10/31 09:24:52;;;;;;;1.50;0.68;;;21.30;51.40;;;;;;5129073;27;45355;-73
2023/10/31 09:27:19;;;;;;;0.40;0.35;;;21.30;51.30;;;;;;5129022;27;45403;-71
2023/10/31 09:29:46;;;;;;;1.85;0.65;;;21.40;51.30;;;;;;5128612;27;45304;-73
2023/10/31 09:32:15;;;;;;;0.40;0.40;;;21.30;51.30;;;;;;5128509;27;45277;-73
2023/10/31 09:34:42;;;;;;;0.60;0.43;;;21.40;51.30;;;;;;5128505;27;45296;-71
2023/10/31 09:37:09;;;;;;;1.30;0.85;;;21.30;51.30;;;;;;5144855;27;45475;-73
2023/10/31 09:39:36;;;;;;;2.60;0.80;;;21.30;51.40;;;;;;5149400;27;45986;-73
2023/10/31 09:42:03;;;;;;;1.75;0.80;;;21.30;51.40;;;;;;5149331;27;45261;-72
2023/10/31 09:44:30;;;;;;;2.78;0.75;;;21.30;51.50;;;;;;5149564;27;45357;-73
2023/10/31 09:46:57;;;;;;;1.17;0.70;;;21.30;51.50;;;;;;5149440;27;45336;-74
2023/10/31 09:49:25;;;;;;;1.35;0.80;;;21.30;51.60;;;;;;5149433;27;45283;-73
2023/10/31 09:51:52;;;;;;;1.50;1.00;;;21.30;51.50;;;;;;5149471;27;45285;-73
2023/10/31 09:54:19;;;;;;;1.52;1.00;;;21.30;51.50;;;;;;5149394;27;45356;-74
2023/10/31 09:56:46;;;;;;;1.80;0.90;;;21.30;51.40;;;;;;5148906;27;45410;-72
2023/10/31 09:59:15;;;;;;;1.10;1.00;;;21.30;51.30;;;;;;5149129;27;45434;-73
2023/10/31 10:01:42;;;;;;;1.48;0.77;;;21.40;51.30;;;;;;5149189;27;45255;-72
2023/10/31 10:04:08;;;;;;;1.10;1.00;;;21.40;51.30;;;;;;5149584;27;45196;-72
2023/10/31 10:06:40;;;;;;;1.20;1.10;;;21.40;51.20;;;;;;5149581;27;45357;-73
2023/10/31 10:09:08;;;;;;;1.73;1.10;;;21.40;51.20;;;;;;5149322;27;45262;-73
2023/10/31 10:11:35;;;;;;;1.10;1.00;;;21.40;51.20;;;;;;5149159;27;45262;-72
2023/10/31 10:14:02;;;;;;;1.60;1.00;;;21.40;51.10;;;;;;5149913;27;45355;-73
2023/10/31 10:16:30;;;;;;;1.20;1.00;;;21.40;51.10;;;;;;5150899;27;45297;-72
2023/10/31 10:18:57;;;;;;;1.33;0.93;;;21.40;51.10;;;;;;5148847;27;45297;-72
2023/10/31 10:21:24;;;;;;;0.85;0.80;;;21.50;51.20;;;;;;5149235;27;45211;-73
2023/10/31 10:23:55;;;;;;;1.05;1.00;;;21.50;51.10;;;;;;5131802;27;45457;-73
2023/10/31 10:26:25;;;;;;;1.67;0.90;;;21.50;51.00;;;;;;5128334;27;45546;-73
2023/10/31 10:28:52;;;;;;;1.92;1.27;;;21.50;51.00;;;;;;5127772;27;45618;-73
2023/10/31 10:31:19;;;;;;;0.70;0.70;;;21.50;51.00;;;;;;5128261;27;45283;-73
2023/10/31 10:33:47;;;;;;;3.20;1.00;;;21.60;51.00;;;;;;5127350;27;45248;-73
2023/10/31 10:36:15;;;;;;;1.55;1.00;;;21.60;50.90;;;;;;5136681;27;45500;-72
2023/10/31 10:38:41;;;;;;;0.80;0.80;;;21.60;50.80;;;;;;5148570;27;47301;-73
2023/10/31 10:41:10;;;;;;;1.88;1.05;;;21.60;50.80;;;;;;5148665;27;45239;-73
2023/10/31 10:43:38;;;;;;;3.80;1.23;;;21.60;50.80;;;;;;5148168;27;45297;-72
2023/10/31 10:46:05;;;;;;;2.17;1.20;;;21.70;50.90;;;;;;5148246;27;45409;-73
2023/10/31 10:48:34;;;;;;;2.83;0.80;;;21.70;50.90;;;;;;5148379;27;46492;-72
2023/10/31 10:51:06;;;;;;;1.33;0.80;;;21.80;50.70;;;;;;5148492;27;45142;-73
2023/10/31 10:53:37;;;;;;;1.38;1.10;;;21.90;50.50;;;;;;5148591;27;45336;-73
2023/10/31 10:56:07;;;;;;;2.22;1.17;;;21.90;50.50;;;;;;5148805;27;45472;-73
2023/10/31 10:58:41;;;;;;;2.33;0.80;;;21.80;50.50;;;;;;5148190;27;46869;-73
2023/10/31 11:01:08;;;;;;;1.25;0.95;;;21.80;50.60;;;;;;5133803;27;45486;-72
2023/10/31 11:03:35;;;;;;;1.15;1.00;;;21.80;50.60;;;;;;5127457;27;45504;-73
2023/10/31 11:06:02;;;;;;;2.13;1.00;;;21.90;50.60;;;;;;5127774;27;45249;-73
2023/10/31 11:08:29;;;;;;;1.40;1.10;;;22.00;50.50;;;;;;5127339;27;45463;-73
2023/10/31 11:10:57;;;;;;;0.88;0.88;;;22.00;50.50;;;;;;5127129;27;45457;-73
2023/10/31 11:13:24;;;;;;;1.17;0.90;;;22.00;50.50;;;;;;5131136;27;45285;-73
2023/10/31 11:15:56;;;;;;;1.77;1.20;;;22.00;50.30;;;;;;5131067;27;45549;-73
2023/10/31 11:18:23;;;;;;;0.82;0.82;;;22.00;50.40;;;;;;5130931;27;46282;-73
2023/10/31 11:20:50;;;;;;;0.90;0.90;;;22.00;50.60;;;;;;5130403;27;45365;-73
2023/10/31 11:23:17;;;;;;;0.98;0.98;;;21.90;50.70;;;;;;5130865;27;45201;-73
2023/10/31 11:25:44;;;;;;;2.00;0.90;;;21.90;50.80;;;;;;5131100;27;45621;-73
2023/10/31 11:28:15;;;;;;;0.95;0.82;;;21.90;50.80;;;;;;5130545;27;46338;-74
2023/10/31 11:30:42;;;;;;;2.20;0.90;;;21.90;50.80;;;;;;5130841;27;45344;-73
2023/10/31 11:33:14;;;;;;;1.00;0.90;;;21.90;50.80;;;;;;5130089;27;45268;-74
2023/10/31 11:35:41;;;;;;;1.42;1.10;;;21.90;50.80;;;;;;5134113;27;45359;-72
2023/10/31 11:38:08;;;;;;;4.82;0.95;;;21.90;50.90;;;;;;5148753;27;46408;-73
2023/10/31 11:40:35;;;;;;;2.22;0.80;;;21.90;51.00;;;;;;5129154;27;46326;-74
2023/10/31 11:43:04;;;;;;;3.35;1.00;;;21.90;51.10;;;;;;5129978;27;45325;-73
2023/10/31 11:45:33;;;;;;;1.67;1.00;;;21.90;51.20;;;;;;5110219;27;45364;-73
2023/10/31 11:48:00;;;;;;;2.25;1.13;;;21.90;51.30;;;;;;5124995;27;45477;-72
2023/10/31 11:50:28;;;;;;;3.55;1.02;;;21.90;51.40;;;;;;5127309;27;45466;-72
2023/10/31 11:53:06;;;;;;;4.10;0.90;;;21.90;51.50;;;;;;5130357;27;45301;-72
2023/10/31 11:55:36;;;;;;;3.35;0.93;;;21.80;51.50;;;;;;5129508;27;45334;-74
2023/10/31 11:58:14;;;;;;;0.77;0.75;;;21.80;51.50;;;;;;5109155;27;46777;-74
2023/10/31 12:00:41;;;;;;;3.40;1.00;;;21.80;51.50;;;;;;5119144;27;45484;-73
2023/10/31 12:03:07;;;;;;;4.70;1.02;;;21.80;52.10;;;;;;5130035;27;45285;-74
2023/10/31 12:05:36;;;;;;;0.82;0.75;;;21.80;51.50;;;;;;5122222;27;45264;-73
2023/10/31 12:08:03;;;;;;;1.63;0.80;;;21.80;51.40;;;;;;5129732;27;45512;-72
2023/10/31 12:10:30;;;;;;;1.73;1.10;;;21.90;51.40;;;;;;5129663;27;45260;-73
2023/10/31 12:12:58;;;;;;;2.28;0.70;;;21.90;51.30;;;;;;5130021;27;45271;-73
2023/10/31 12:15:25;;;;;;;1.25;0.82;;;21.90;51.30;;;;;;5124711;27;45181;-74
2023/10/31 12:17:51;;;;;;;1.23;0.60;;;21.90;51.30;;;;;;5129457;27;45544;-74
2023/10/31 12:20:18;;;;;;;0.82;0.80;;;21.90;51.90;;;;;;5129163;27;45423;-71
2023/10/31 12:22:47;;;;;;;1.10;0.82;;;21.90;51.30;;;;;;5122293;27;45304;-71
2023/10/31 12:25:14;;;;;;;1.20;0.80;;;21.90;51.30;;;;;;5129370;27;45332;-73
2023/10/31 12:27:45;;;;;;;0.80;0.65;;;21.80;51.40;;;;;;5129680;27;46354;-72
2023/10/31 12:30:12;;;;;;;1.98;0.80;;;21.80;51.40;;;;;;5130330;27;45247;-72
2023/10/31 12:32:40;;;;;;;2.55;0.82;;;21.80;51.50;;;;;;5129539;27;45286;-72
2023/10/31 12:35:07;;;;;;;0.73;0.68;;;21.80;51.60;;;;;;5109110;27;45360;-72
2023/10/31 12:37:34;;;;;;;0.65;0.65;;;21.70;51.60;;;;;;5099764;27;46740;-71
2023/10/31 12:40:04;;;;;;;1.73;0.70;;;21.70;51.60;;;;;;5108470;27;45360;-70
2023/10/31 12:42:32;;;;;;;1.35;0.77;;;21.70;51.60;;;;;;5109110;27;45257;-71
2023/10/31 12:45:00;;;;;;;2.22;0.70;;;21.80;51.60;;;;;;5110105;27;45255;-73
2023/10/31 12:47:26;;;;;;;0.73;0.73;;;21.80;51.60;;;;;;5111358;27;46344;-73